Time;durP1;ratioP1;P1;durP2;ratioP2;P2;SDS_P1;SDS_P2;PMS_P1;PMS_P2;Temp;Humidity;BMP_temperature;BMP_pressure;BME280_temperature;BME280_humidity;BME280_pressure;Samples;Min_cycle;Max_cycle;Signal;HPM_P1;HPM_P2
2021/07/17 00:02:12;;;;;;;20.23;18.08;;;;;;;20.91;67.21;100972.41;5030330;28;20485;-77
2021/07/17 00:04:37;;;;;;;22.55;19.30;;;;;;;20.90;67.28;100963.31;5031168;28;20399;-77
2021/07/17 00:07:03;;;;;;;22.23;19.13;;;;;;;20.89;67.28;100964.44;5030861;28;20461;-77
2021/07/17 00:09:28;;;;;;;19.88;17.48;;;;;;;20.89;67.41;100969.13;5031208;28;20416;-77
2021/07/17 00:11:54;;;;;;;21.60;19.30;;;;;;;20.89;67.45;100971.88;5030307;28;20416;-78
2021/07/17 00:14:19;;;;;;;21.57;19.27;;;;;;;20.87;67.66;100966.66;5031336;28;20881;-77
2021/07/17 00:16:44;;;;;;;23.60;19.13;;;;;;;20.88;67.59;100967.50;5031340;28;20398;-77
2021/07/17 00:19:10;;;;;;;21.48;19.30;;;;;;;20.86;67.70;100973.28;5032014;28;20832;-77
2021/07/17 00:21:36;;;;;;;20.15;18.05;;;;;;;20.84;67.97;100966.47;5034164;28;20414;-77
2021/07/17 00:24:01;;;;;;;21.93;18.67;;;;;;;20.82;68.14;100964.00;5035142;28;20391;-78
2021/07/17 00:26:27;;;;;;;20.80;17.77;;;;;;;20.84;68.29;100960.94;5035126;28;20399;-77
2021/07/17 00:28:52;;;;;;;22.63;19.00;;;;;;;20.83;68.02;100956.53;5033949;28;20495;-77
2021/07/17 00:31:17;;;;;;;21.17;18.00;;;;;;;20.82;67.68;100960.41;5016095;28;20415;-77
2021/07/17 00:33:43;;;;;;;21.47;17.60;;;;;;;20.78;67.49;100964.91;5034744;28;20402;-77
2021/07/17 00:36:08;;;;;;;22.40;18.50;;;;;;;20.77;67.74;100966.84;5034911;28;20402;-77
2021/07/17 00:38:34;;;;;;;23.52;18.40;;;;;;;20.74;68.00;100961.94;5017093;28;20425;-77
2021/07/17 00:41:00;;;;;;;22.03;17.57;;;;;;;20.68;67.66;100965.88;5033764;28;20925;-77
2021/07/17 00:43:25;;;;;;;19.42;17.17;;;;;;;20.64;67.70;100967.59;5013487;28;20768;-77
2021/07/17 00:45:50;;;;;;;21.80;18.03;;;;;;;20.60;67.90;100972.88;5009108;28;20399;-77
2021/07/17 00:48:16;;;;;;;23.00;17.65;;;;;;;20.59;67.85;100957.47;5034793;28;20410;-77
2021/07/17 00:50:42;;;;;;;22.03;17.77;;;;;;;20.60;68.02;100963.81;5016114;28;20395;-77
2021/07/17 00:53:07;;;;;;;23.63;18.00;;;;;;;20.60;68.33;100952.78;5014924;28;20387;-77
2021/07/17 00:55:37;;;;;;;22.73;17.73;;;;;;;20.58;67.87;100955.03;5023334;28;20758;-77
2021/07/17 00:58:02;;;;;;;21.83;17.77;;;;;;;20.55;68.37;100956.44;5032970;28;20425;-77
2021/07/17 01:00:27;;;;;;;20.67;18.35;;;;;;;20.56;68.69;100958.06;5034617;28;20533;-77
2021/07/17 01:02:59;;;;;;;20.03;17.30;;;;;;;20.54;68.97;100957.56;5032192;28;20403;-77
2021/07/17 01:05:24;;;;;;;21.73;18.00;;;;;;;20.55;69.12;100952.84;5016753;28;20398;-77
2021/07/17 01:07:50;;;;;;;21.03;18.37;;;;;;;20.56;69.69;100963.59;5034244;28;20395;-77
2021/07/17 01:10:17;;;;;;;23.98;18.25;;;;;;;20.55;69.23;100952.84;5016757;28;20400;-77
2021/07/17 01:12:43;;;;;;;19.45;17.42;;;;;;;20.55;69.08;100948.16;5033211;28;20419;-77
2021/07/17 01:15:09;;;;;;;19.65;17.27;;;;;;;20.54;69.20;100954.81;5034089;28;20460;-77
2021/07/17 01:17:35;;;;;;;24.03;17.60;;;;;;;20.50;68.63;100951.00;5034002;28;20411;-77
2021/07/17 01:20:04;;;;;;;24.50;18.30;;;;;;;20.48;69.09;100952.44;5034156;28;20488;-77
2021/07/17 01:22:31;;;;;;;23.10;18.58;;;;;;;20.47;68.81;100953.53;5033110;28;20478;-77
2021/07/17 01:24:56;;;;;;;25.80;19.02;;;;;;;20.45;68.81;100956.59;5033798;28;20473;-77
2021/07/17 01:27:22;;;;;;;21.73;19.23;;;;;;;20.44;68.94;100957.72;5034034;28;20879;-77
2021/07/17 01:29:47;;;;;;;24.98;18.50;;;;;;;20.42;69.05;100956.34;5033541;28;20418;-77
2021/07/17 01:32:17;;;;;;;20.47;18.13;;;;;;;20.43;69.37;100956.06;5032655;28;20487;-77
2021/07/17 01:34:43;;;;;;;20.63;18.25;;;;;;;20.42;69.47;100951.66;5027528;28;20415;-77
2021/07/17 01:37:08;;;;;;;21.47;18.07;;;;;;;20.43;69.82;100958.81;5033444;28;20465;-77
2021/07/17 01:39:33;;;;;;;24.97;18.30;;;;;;;20.42;70.14;100950.84;5033858;28;20394;-77
2021/07/17 01:41:59;;;;;;;21.23;18.55;;;;;;;20.42;70.16;100945.34;5032218;28;20813;-77
2021/07/17 01:44:24;;;;;;;22.57;18.43;;;;;;;20.41;70.23;100943.72;5033096;28;20411;-77
2021/07/17 01:46:49;;;;;;;22.10;18.43;;;;;;;20.40;70.06;100944.84;5032423;28;20399;-77
2021/07/17 01:49:14;;;;;;;19.80;17.73;;;;;;;20.37;69.96;100932.50;5032703;28;20415;-77
2021/07/17 01:51:40;;;;;;;22.50;18.50;;;;;;;20.36;70.39;100935.53;5033517;28;20465;-77
2021/07/17 01:54:05;;;;;;;21.63;16.83;;;;;;;20.36;70.37;100932.78;5033214;28;20841;-77
2021/07/17 01:56:31;;;;;;;21.83;18.10;;;;;;;20.35;70.15;100936.66;5015573;28;20441;-77
2021/07/17 01:58:56;;;;;;;20.87;18.47;;;;;;;20.34;70.03;100929.53;5032024;28;20422;-77
2021/07/17 02:01:26;;;;;;;23.23;18.67;;;;;;;20.34;70.29;100924.00;5033289;28;20399;-77
2021/07/17 02:03:52;;;;;;;24.63;18.15;;;;;;;20.32;70.35;100927.03;5033277;28;20482;-77
2021/07/17 02:06:28;;;;;;;24.93;18.53;;;;;;;20.28;69.87;100927.97;5033104;28;20435;-77
2021/07/17 02:08:54;;;;;;;19.83;17.73;;;;;;;20.28;70.16;100925.22;5031380;28;20909;-77
2021/07/17 02:11:19;;;;;;;20.67;18.57;;;;;;;20.27;69.96;100918.88;5031911;28;20419;-78
2021/07/17 02:13:50;;;;;;;24.43;19.37;;;;;;;20.28;70.10;100919.72;5032889;28;20747;-77
2021/07/17 02:16:16;;;;;;;21.13;18.55;;;;;;;20.27;70.47;100924.38;5033085;28;20762;-77
2021/07/17 02:18:42;;;;;;;23.08;18.80;;;;;;;20.27;70.58;100927.13;5030717;28;20426;-77
2021/07/17 02:21:08;;;;;;;22.85;18.48;;;;;;;20.23;70.56;100917.81;5029069;28;20955;-77
2021/07/17 02:23:37;;;;;;;21.55;18.38;;;;;;;20.18;70.78;100921.47;5021510;28;20403;-77
2021/07/17 02:26:04;;;;;;;26.30;18.23;;;;;;;20.18;70.90;100924.22;5032552;28;20410;-77
2021/07/17 02:28:29;;;;;;;23.25;18.58;;;;;;;20.16;70.79;100931.13;5032148;28;20415;-77
2021/07/17 02:30:54;;;;;;;20.45;17.00;;;;;;;20.12;70.53;100922.63;5032800;28;20453;-78
2021/07/17 02:33:19;;;;;;;20.63;18.23;;;;;;;20.08;70.64;100916.09;5032821;28;20815;-77
2021/07/17 02:35:45;;;;;;;21.03;18.83;;;;;;;20.09;70.68;100922.41;5032842;28;20486;-78
2021/07/17 02:38:12;;;;;;;19.70;17.60;;;;;;;20.09;70.72;100919.66;5031347;28;20423;-77
2021/07/17 02:40:38;;;;;;;20.77;18.60;;;;;;;20.10;70.81;100924.03;5032494;28;20403;-77
2021/07/17 02:43:03;;;;;;;20.63;18.45;;;;;;;20.11;71.21;100920.19;5031829;28;20383;-77
2021/07/17 02:45:29;;;;;;;23.58;18.25;;;;;;;20.14;71.24;100938.84;5032550;28;20886;-78
2021/07/17 02:47:54;;;;;;;25.97;19.67;;;;;;;20.16;70.78;100931.94;5032181;28;20387;-77
2021/07/17 02:50:20;;;;;;;22.97;18.87;;;;;;;20.19;70.56;100927.75;5031633;28;20418;-77
2021/07/17 02:52:46;;;;;;;21.53;18.17;;;;;;;20.20;70.61;100918.41;5032501;28;20399;-77
2021/07/17 02:55:12;;;;;;;22.93;18.53;;;;;;;20.23;70.81;100919.72;5032323;28;20454;-77
2021/07/17 02:57:37;;;;;;;23.55;18.88;;;;;;;20.23;70.16;100920.56;5031777;28;20411;-77
2021/07/17 03:00:06;;;;;;;24.43;18.10;;;;;;;20.25;70.28;100928.53;5031420;28;20414;-78
2021/07/17 03:02:31;;;;;;;23.52;17.50;;;;;;;20.24;70.28;100932.38;5031768;28;20474;-77
2021/07/17 03:04:56;;;;;;;19.67;17.50;;;;;;;20.23;70.28;100936.25;5012742;28;20454;-77
2021/07/17 03:07:21;;;;;;;21.80;18.43;;;;;;;20.22;70.31;100934.63;5012566;28;20422;-78
2021/07/17 03:09:47;;;;;;;22.10;18.57;;;;;;;20.18;70.64;100926.97;5027228;28;20417;-78
2021/07/17 03:12:12;;;;;;;24.80;19.40;;;;;;;20.17;70.87;100924.50;5031502;28;20407;-77
2021/07/17 03:14:37;;;;;;;20.33;18.17;;;;;;;20.15;71.13;100922.03;5014313;28;20391;-79
2021/07/17 03:17:03;;;;;;;20.40;18.42;;;;;;;20.15;70.69;100927.53;5030221;28;20897;-78
2021/07/17 03:19:28;;;;;;;23.37;18.37;;;;;;;20.14;71.15;100928.66;5030548;28;20460;-78
2021/07/17 03:21:54;;;;;;;20.73;18.57;;;;;;;20.15;71.35;100929.50;5031943;28;20406;-77
2021/07/17 03:24:19;;;;;;;20.13;18.00;;;;;;;20.14;71.39;100925.91;5013558;28;20970;-77
2021/07/17 03:26:44;;;;;;;20.13;17.63;;;;;;;20.14;71.25;100928.66;5031492;28;20395;-77
2021/07/17 03:29:10;;;;;;;20.27;18.13;;;;;;;20.14;70.92;100919.59;5031622;28;20879;-77
2021/07/17 03:31:35;;;;;;;23.13;19.30;;;;;;;20.13;71.16;100921.53;5031008;28;20400;-77
2021/07/17 03:34:01;;;;;;;21.80;18.90;;;;;;;20.13;71.46;100920.69;5030744;28;20418;-78
2021/07/17 03:36:27;;;;;;;21.23;18.27;;;;;;;20.09;71.42;100923.22;5029739;28;20913;-77
2021/07/17 03:38:53;;;;;;;22.63;18.83;;;;;;;20.08;71.19;100921.63;5030286;28;20421;-78
2021/07/17 03:41:18;;;;;;;21.07;18.50;;;;;;;20.09;71.58;100927.91;5031655;28;20403;-77
2021/07/17 03:43:45;;;;;;;21.67;18.15;;;;;;;20.10;71.35;100935.06;5031292;28;20581;-77
2021/07/17 03:46:10;;;;;;;20.40;17.88;;;;;;;20.10;71.57;100932.31;5029331;28;20414;-77
2021/07/17 03:48:36;;;;;;;21.43;18.67;;;;;;;20.12;71.68;100939.13;5031280;28;20391;-77
2021/07/17 03:51:02;;;;;;;19.85;17.50;;;;;;;20.12;71.22;100941.88;5031346;28;20452;-77
2021/07/17 03:53:28;;;;;;;21.57;18.07;;;;;;;20.12;71.22;100932.84;5031301;28;20414;-77
2021/07/17 03:55:53;;;;;;;22.77;18.98;;;;;;;20.13;71.08;100937.22;5030470;28;20407;-77
2021/07/17 03:58:18;;;;;;;19.97;18.00;;;;;;;20.14;71.23;100933.34;5030830;28;20430;-77
2021/07/17 04:00:44;;;;;;;24.63;19.38;;;;;;;20.13;70.85;100940.78;5031082;28;20736;-77
2021/07/17 04:03:09;;;;;;;22.43;18.73;;;;;;;20.12;71.15;100941.88;5031388;28;20889;-77
2021/07/17 04:05:34;;;;;;;24.40;18.77;;;;;;;20.13;70.89;100934.47;5030409;28;20411;-78
2021/07/17 04:08:00;;;;;;;23.63;18.67;;;;;;;20.13;70.68;100939.97;5031364;28;20415;-77
2021/07/17 04:10:25;;;;;;;20.07;17.83;;;;;;;20.10;70.71;100944.13;5030681;28;20739;-77
2021/07/17 04:12:50;;;;;;;23.33;18.95;;;;;;;20.11;70.98;100939.44;5013296;28;20957;-77
2021/07/17 04:15:16;;;;;;;21.40;17.47;;;;;;;20.10;70.65;100948.81;5029778;28;20456;-77
2021/07/17 04:17:41;;;;;;;22.47;16.80;;;;;;;20.13;70.70;100951.78;5030456;28;20420;-78
2021/07/17 04:20:08;;;;;;;22.95;17.60;;;;;;;20.15;70.93;100952.31;5030907;28;20446;-77
2021/07/17 04:22:35;;;;;;;20.83;16.67;;;;;;;20.18;70.81;100959.16;5030634;28;20478;-77
2021/07/17 04:25:01;;;;;;;20.65;17.52;;;;;;;20.19;70.63;100961.59;5029788;28;20418;-78
2021/07/17 04:27:26;;;;;;;24.63;18.08;;;;;;;20.20;70.33;100957.75;5030585;28;20401;-77
2021/07/17 04:29:51;;;;;;;20.93;18.17;;;;;;;20.22;70.72;100962.16;5030844;28;20754;-78
2021/07/17 04:32:17;;;;;;;23.20;18.83;;;;;;;20.23;70.95;100961.84;5026009;28;20419;-78
2021/07/17 04:34:42;;;;;;;25.90;18.05;;;;;;;20.26;70.75;100965.91;5029294;28;20406;-77
2021/07/17 04:37:08;;;;;;;21.20;16.93;;;;;;;20.25;70.41;100965.13;5028478;28;20411;-77
2021/07/17 04:39:33;;;;;;;21.80;18.40;;;;;;;20.24;70.14;100966.25;5028066;28;20442;-77
2021/07/17 04:41:59;;;;;;;23.23;17.77;;;;;;;20.24;70.34;100965.41;5030042;28;20422;-77
2021/07/17 04:44:24;;;;;;;23.27;18.00;;;;;;;20.23;70.39;100958.25;5012398;28;20417;-77
2021/07/17 04:46:49;;;;;;;24.13;17.67;;;;;;;20.24;70.22;100960.72;5030954;28;20402;-77
2021/07/17 04:49:15;;;;;;;21.87;17.77;;;;;;;20.24;70.15;100955.22;5030929;28;20704;-77
2021/07/17 04:51:40;;;;;;;21.83;18.03;;;;;;;20.25;70.10;100956.88;5029810;28;20472;-77
2021/07/17 04:54:05;;;;;;;25.03;18.43;;;;;;;20.25;70.11;100962.38;5030184;28;20419;-77
2021/07/17 04:56:31;;;;;;;25.93;18.67;;;;;;;20.24;69.84;100963.47;5028370;28;20419;-77
2021/07/17 04:58:56;;;;;;;25.80;18.60;;;;;;;20.25;70.25;100965.13;5012765;28;20419;-78
2021/07/17 05:01:21;;;;;;;22.53;18.27;;;;;;;20.29;70.38;100962.59;5030775;28;20434;-77
2021/07/17 05:03:47;;;;;;;22.70;17.60;;;;;;;20.29;70.03;100968.09;5013282;28;20414;-77
2021/07/17 05:06:12;;;;;;;23.87;19.27;;;;;;;20.27;70.07;100960.16;5031437;28;20419;-77
2021/07/17 05:08:38;;;;;;;21.13;17.77;;;;;;;20.28;70.39;100967.31;5000340;28;20878;-77
2021/07/17 05:11:03;;;;;;;26.57;18.47;;;;;;;20.32;70.58;100962.84;5034034;28;20407;-77
2021/07/17 05:13:29;;;;;;;23.23;18.10;;;;;;;20.34;70.37;100959.78;5034263;28;20418;-78
2021/07/17 05:15:55;;;;;;;23.10;18.35;;;;;;;20.33;70.34;100961.72;5015680;28;20415;-77
2021/07/17 05:18:21;;;;;;;26.33;18.40;;;;;;;20.33;70.52;100961.72;5030684;28;20469;-77
2021/07/17 05:20:47;;;;;;;19.67;17.05;;;;;;;20.35;70.64;100964.19;5032626;28;20747;-77
2021/07/17 05:23:12;;;;;;;20.20;17.35;;;;;;;20.33;70.77;100961.72;5016374;28;20449;-77
2021/07/17 05:25:38;;;;;;;21.93;18.87;;;;;;;20.31;70.66;100969.47;5033685;28;20449;-77
2021/07/17 05:28:04;;;;;;;21.63;17.00;;;;;;;20.30;70.62;100967.00;5021312;28;20415;-77
2021/07/17 05:30:29;;;;;;;22.10;18.07;;;;;;;20.27;70.58;100956.59;5033152;28;20502;-77
2021/07/17 05:32:54;;;;;;;24.98;17.63;;;;;;;20.30;71.36;100967.00;5032562;28;20402;-77
2021/07/17 05:35:20;;;;;;;19.53;17.43;;;;;;;20.31;70.85;100965.91;5023134;28;20407;-77
2021/07/17 05:37:46;;;;;;;20.98;16.75;;;;;;;20.32;71.23;100970.28;5033586;28;20841;-77
2021/07/17 05:40:12;;;;;;;19.93;16.17;;;;;;;20.33;71.30;100967.22;5029261;28;20774;-77
2021/07/17 05:42:37;;;;;;;20.52;16.98;;;;;;;20.30;70.92;100964.25;5016462;28;20449;-78
2021/07/17 05:45:03;;;;;;;21.70;17.00;;;;;;;20.26;71.08;100968.69;5030090;28;20441;-77
2021/07/17 05:47:29;;;;;;;21.98;17.73;;;;;;;20.23;71.83;100970.09;5020492;28;20466;-77
2021/07/17 05:49:54;;;;;;;24.00;17.52;;;;;;;20.25;71.49;100967.06;5022594;28;20398;-79
2021/07/17 05:52:20;;;;;;;19.77;17.27;;;;;;;20.27;71.33;100965.66;5032308;28;20750;-79
2021/07/17 05:54:45;;;;;;;22.87;16.83;;;;;;;20.24;71.64;100968.16;5033173;28;20395;-79
2021/07/17 05:57:10;;;;;;;22.25;17.02;;;;;;;20.26;71.81;100972.25;5033179;28;20461;-78
2021/07/17 05:59:36;;;;;;;19.60;16.30;;;;;;;20.30;71.67;100967.81;5026627;28;20415;-78
2021/07/17 06:02:03;;;;;;;24.50;18.48;;;;;;;20.25;71.12;100962.38;5029132;28;20403;-77
2021/07/17 06:04:28;;;;;;;22.20;17.47;;;;;;;20.26;71.40;100960.41;5033212;28;20488;-77
2021/07/17 06:06:54;;;;;;;24.47;17.70;;;;;;;20.29;71.26;100963.44;5028975;28;20835;-77
2021/07/17 06:09:19;;;;;;;23.20;17.20;;;;;;;20.31;71.22;100958.47;5032392;28;20892;-77
2021/07/17 06:11:44;;;;;;;21.53;16.77;;;;;;;20.36;71.20;100965.81;5032734;28;20822;-78
2021/07/17 06:14:10;;;;;;;21.83;17.63;;;;;;;20.43;71.27;100956.06;5031937;28;20506;-77
2021/07/17 06:16:35;;;;;;;22.30;16.90;;;;;;;20.48;71.08;100955.19;5015049;28;20403;-78
2021/07/17 06:19:00;;;;;;;20.03;16.67;;;;;;;20.51;71.15;100958.16;5033094;28;20890;-78
2021/07/17 06:21:26;;;;;;;20.73;16.33;;;;;;;20.56;71.10;100965.50;5032154;28;20411;-78
2021/07/17 06:23:51;;;;;;;24.40;17.13;;;;;;;20.57;70.89;100967.16;5032284;28;20804;-78
2021/07/17 06:26:16;;;;;;;23.77;17.37;;;;;;;20.55;70.25;100972.13;5028477;28;20404;-77
2021/07/17 06:28:41;;;;;;;21.47;16.27;;;;;;;20.56;70.71;100968.25;5017805;28;20470;-78
2021/07/17 06:31:07;;;;;;;21.93;16.97;;;;;;;20.59;70.67;100968.50;5024559;28;20403;-78
2021/07/17 06:33:34;;;;;;;20.37;16.83;;;;;;;20.65;70.68;100980.22;5029105;28;20896;-77
2021/07/17 06:35:59;;;;;;;20.42;16.10;;;;;;;20.72;70.39;100977.91;5023687;28;20414;-77
2021/07/17 06:38:24;;;;;;;17.80;15.97;;;;;;;20.78;70.30;100973.16;5032501;28;20422;-78
2021/07/17 06:40:50;;;;;;;22.03;16.50;;;;;;;20.86;70.36;100970.53;5031456;28;20401;-77
2021/07/17 06:43:15;;;;;;;20.57;16.90;;;;;;;20.91;70.06;100972.41;5031928;28;20944;-77
2021/07/17 06:45:40;;;;;;;22.53;16.43;;;;;;;20.95;69.84;100981.69;5020500;28;20470;-77
2021/07/17 06:48:06;;;;;;;26.33;17.83;;;;;;;20.93;69.33;100983.94;5023489;28;20488;-77
2021/07/17 06:50:31;;;;;;;20.48;16.25;;;;;;;20.91;69.43;100984.22;5026254;28;20497;-77
2021/07/17 06:52:56;;;;;;;23.70;15.83;;;;;;;20.91;69.82;100986.19;5032468;28;20391;-77
2021/07/17 06:55:22;;;;;;;22.20;16.60;;;;;;;20.97;69.66;100984.97;5014374;28;20403;-78
2021/07/17 06:57:47;;;;;;;20.67;16.17;;;;;;;20.97;69.44;100994.06;5029579;28;20422;-79
2021/07/17 07:00:15;;;;;;;20.83;16.67;;;;;;;20.99;69.48;100991.81;5032191;28;20399;-79
2021/07/17 07:02:40;;;;;;;21.13;17.00;;;;;;;20.99;69.54;100986.31;5031765;28;20410;-78
2021/07/17 07:05:07;;;;;;;24.50;16.52;;;;;;;21.03;69.76;100989.28;5030468;28;20770;-78
2021/07/17 07:07:33;;;;;;;21.48;15.77;;;;;;;21.03;69.27;100994.78;5014213;28;20399;-78
2021/07/17 07:09:59;;;;;;;18.27;15.83;;;;;;;21.02;69.39;101007.75;5031844;28;20474;-78
2021/07/17 07:12:24;;;;;;;20.52;16.20;;;;;;;20.98;69.37;101012.22;5033584;28;20410;-78
2021/07/17 07:14:49;;;;;;;21.57;15.87;;;;;;;20.93;69.70;101009.53;5035127;28;20437;-79
2021/07/17 07:17:15;;;;;;;19.77;15.70;;;;;;;20.91;69.72;101008.22;5031324;28;20449;-79
2021/07/17 07:19:40;;;;;;;22.73;16.17;;;;;;;20.89;69.84;101002.16;5030275;28;20422;-78
2021/07/17 07:22:05;;;;;;;19.63;15.57;;;;;;;20.91;70.00;101005.47;5029737;28;20407;-78
2021/07/17 07:24:31;;;;;;;17.50;15.60;;;;;;;20.94;70.32;101004.84;5031672;28;20407;-78
2021/07/17 07:26:57;;;;;;;20.17;16.00;;;;;;;20.92;69.84;101005.16;5030947;28;20407;-79
2021/07/17 07:29:24;;;;;;;19.55;15.30;;;;;;;20.86;70.11;101011.03;5031838;28;20441;-80
2021/07/17 07:31:50;;;;;;;22.00;15.70;;;;;;;20.88;70.29;101012.38;5018948;28;20905;-78
2021/07/17 07:34:15;;;;;;;21.73;15.68;;;;;;;20.92;69.89;101007.91;5030585;28;20414;-78
2021/07/17 07:36:40;;;;;;;22.17;16.13;;;;;;;20.95;70.06;101014.75;5030630;28;20470;-78
2021/07/17 07:39:06;;;;;;;21.80;15.73;;;;;;;20.95;70.30;101010.06;5031522;28;20421;-78
2021/07/17 07:41:31;;;;;;;22.13;14.57;;;;;;;20.97;70.44;101012.53;5031331;28;20433;-78
2021/07/17 07:43:56;;;;;;;20.80;15.73;;;;;;;20.99;70.65;101007.50;5013257;28;20415;-79
2021/07/17 07:46:22;;;;;;;23.77;15.77;;;;;;;20.96;70.18;101011.69;5030879;28;20433;-78
2021/07/17 07:48:47;;;;;;;21.43;15.63;;;;;;;20.96;70.25;101008.13;5026591;28;20445;-78
2021/07/17 07:51:12;;;;;;;19.77;15.73;;;;;;;21.00;70.10;101010.00;5009208;28;20914;-78
2021/07/17 07:53:38;;;;;;;17.80;14.63;;;;;;;21.05;70.19;101009.06;5014847;28;20895;-78
2021/07/17 07:56:04;;;;;;;17.63;15.10;;;;;;;21.10;69.59;101015.38;5021029;28;20473;-78
2021/07/17 07:58:30;;;;;;;21.25;15.88;;;;;;;21.06;69.96;101008.78;5029108;28;20759;-78
2021/07/17 08:00:55;;;;;;;21.98;15.30;;;;;;;21.06;69.80;101010.72;5030503;28;20457;-79
2021/07/17 08:03:21;;;;;;;18.58;14.57;;;;;;;21.10;69.79;101004.34;5030670;28;20430;-78
2021/07/17 08:05:46;;;;;;;19.37;14.93;;;;;;;21.14;69.32;101007.31;5031532;28;20891;-78
2021/07/17 08:08:11;;;;;;;18.53;15.17;;;;;;;21.20;69.71;101009.69;5030987;28;20411;-79
2021/07/17 08:10:37;;;;;;;18.83;14.57;;;;;;;21.26;69.35;101004.06;5031324;28;20402;-78
2021/07/17 08:13:02;;;;;;;19.97;14.87;;;;;;;21.34;69.38;101001.41;5013354;28;20401;-78
2021/07/17 08:15:28;;;;;;;16.42;14.82;;;;;;;21.38;69.01;101004.38;5030068;28;20494;-78
2021/07/17 08:17:53;;;;;;;18.83;14.10;;;;;;;21.35;68.67;100999.47;5028874;28;20415;-78
2021/07/17 08:20:18;;;;;;;16.20;13.93;;;;;;;21.35;69.23;101000.31;5029286;28;21074;-78
2021/07/17 08:22:44;;;;;;;17.03;14.23;;;;;;;21.44;68.48;101005.94;5030734;28;20486;-77
2021/07/17 08:25:10;;;;;;;17.85;14.43;;;;;;;21.51;68.04;100998.91;5031019;28;20411;-78
2021/07/17 08:27:35;;;;;;;19.48;14.25;;;;;;;21.59;67.48;101000.13;5030500;28;20391;-78
2021/07/17 08:30:00;;;;;;;17.53;14.07;;;;;;;21.72;67.63;101000.16;5030005;28;20906;-79
2021/07/17 08:32:26;;;;;;;17.83;14.23;;;;;;;21.90;67.38;101000.41;5031162;28;20814;-78
2021/07/17 08:34:52;;;;;;;18.50;13.95;;;;;;;21.99;67.00;101006.81;5030357;28;20460;-79
2021/07/17 08:37:19;;;;;;;18.98;14.27;;;;;;;22.05;66.91;101005.59;5030804;28;20485;-78
2021/07/17 08:39:44;;;;;;;20.90;14.20;;;;;;;22.06;66.48;101010.78;5031309;28;20394;-78
2021/07/17 08:42:09;;;;;;;18.07;13.90;;;;;;;22.06;66.72;101007.22;5033750;28;20405;-78
2021/07/17 08:44:37;;;;;;;18.67;13.93;;;;;;;22.02;67.08;101006.22;5025074;28;20845;-78
2021/07/17 08:47:03;;;;;;;21.40;13.63;;;;;;;21.95;67.17;101006.63;5045487;28;20413;-80
2021/07/17 08:49:30;;;;;;;18.67;14.33;;;;;;;21.82;67.39;101001.88;5032346;28;20469;-78
2021/07/17 08:51:55;;;;;;;17.45;14.40;;;;;;;21.78;67.11;101013.84;5035886;28;20494;-78
2021/07/17 08:54:21;;;;;;;20.57;15.10;;;;;;;21.66;68.12;101006.91;5034320;28;20537;-81
2021/07/17 08:56:48;;;;;;;18.40;14.45;;;;;;;21.55;68.22;101005.44;5035508;28;20426;-77
2021/07/17 08:59:13;;;;;;;16.43;13.73;;;;;;;21.48;68.30;100998.69;5035456;28;20423;-76
2021/07/17 09:01:38;;;;;;;19.30;14.45;;;;;;;21.49;68.98;100997.56;5027860;28;20404;-78
2021/07/17 09:04:07;;;;;;;18.40;14.27;;;;;;;21.45;68.61;101007.56;5032173;28;20908;-79
2021/07/17 09:06:32;;;;;;;15.68;13.48;;;;;;;21.39;68.77;101011.53;5031318;28;20412;-77
2021/07/17 09:08:57;;;;;;;17.60;14.00;;;;;;;21.51;68.61;100998.06;5032755;28;20754;-78
2021/07/17 09:11:37;;;;;;;19.77;15.17;;;;;;;21.53;67.94;101004.94;5031377;28;20775;-77
2021/07/17 09:14:03;;;;;;;19.73;14.63;;;;;;;21.49;68.18;100997.56;5034037;28;20406;-76
2021/07/17 09:16:31;;;;;;;16.50;13.65;;;;;;;21.48;68.63;101004.19;5016514;28;20411;-76
2021/07/17 09:18:58;;;;;;;17.33;13.95;;;;;;;21.48;68.96;101012.47;5033445;28;20902;-77
2021/07/17 09:21:41;;;;;;;20.70;14.02;;;;;;;21.54;68.67;101001.03;5033390;28;20475;-77
2021/07/17 09:24:14;;;;;;;18.98;13.60;;;;;;;21.58;68.72;101004.00;5033859;28;20754;-77
2021/07/17 09:26:49;;;;;;;20.83;13.07;;;;;;;21.60;69.00;101002.56;5032988;28;20396;-77
2021/07/17 09:29:15;;;;;;;17.63;13.45;;;;;;;21.56;69.10;101009.03;5033894;28;20406;-77
2021/07/17 09:31:49;;;;;;;19.83;13.05;;;;;;;21.50;69.16;101004.72;5033134;28;20411;-77
2021/07/17 09:34:16;;;;;;;17.55;13.18;;;;;;;21.47;68.77;100997.88;5033989;28;20403;-79
2021/07/17 09:36:57;;;;;;;17.30;13.17;;;;;;;21.40;69.20;101002.16;5033851;28;20395;-77
2021/07/17 09:39:28;;;;;;;16.48;12.70;;;;;;;21.40;69.62;101007.69;5033422;28;20940;-76
2021/07/17 09:42:06;;;;;;;16.90;13.25;;;;;;;21.38;69.80;101002.44;5032771;28;20407;-77
2021/07/17 09:44:34;;;;;;;18.23;13.10;;;;;;;21.38;69.44;101002.44;5003606;28;20407;-77
2021/07/17 09:46:59;;;;;;;14.88;12.55;;;;;;;21.42;69.56;101010.94;5025658;28;20411;-77
2021/07/17 09:49:26;;;;;;;13.80;12.27;;;;;;;21.44;69.51;101001.22;5032435;28;20457;-76
2021/07/17 09:52:21;;;;;;;14.75;12.48;;;;;;;21.48;69.21;101001.44;5031830;28;20482;-76
2021/07/17 09:55:05;;;;;;;16.67;13.10;;;;;;;21.44;69.31;100998.47;5032009;28;20399;-76
2021/07/17 09:57:32;;;;;;;17.43;12.00;;;;;;;21.48;69.08;100996.75;5032123;28;20476;-76
2021/07/17 10:00:09;;;;;;;17.38;11.93;;;;;;;21.58;69.28;100998.50;5030679;28;20411;-76
2021/07/17 10:02:39;;;;;;;14.13;11.85;;;;;;;21.69;69.11;100997.19;5014619;28;20407;-76
2021/07/17 10:05:09;;;;;;;15.75;11.68;;;;;;;21.77;68.64;100993.69;5033222;28;20407;-77
2021/07/17 10:07:35;;;;;;;14.10;11.50;;;;;;;21.87;68.39;100987.16;5015364;28;20461;-76
2021/07/17 10:10:01;;;;;;;16.42;11.35;;;;;;;22.02;67.91;100984.13;5032553;28;20490;-76
2021/07/17 10:12:39;;;;;;;12.67;11.27;;;;;;;22.07;67.07;100987.59;5033358;28;20472;-75
2021/07/17 10:15:08;;;;;;;13.18;11.40;;;;;;;22.09;67.11;100979.84;5020558;28;20399;-76
2021/07/17 10:17:42;;;;;;;14.40;11.18;;;;;;;22.06;66.52;100983.19;4995904;28;20811;-77
2021/07/17 10:20:11;;;;;;;15.10;11.88;;;;;;;22.00;66.72;100989.13;5023604;28;20434;-77
2021/07/17 10:22:37;;;;;;;17.57;10.13;;;;;;;21.90;67.26;100987.38;5035574;28;20492;-77
2021/07/17 10:25:13;;;;;;;31.70;10.75;;;;;;;21.95;67.30;100983.72;5044041;28;20391;-76
2021/07/17 10:27:39;;;;;;;12.40;9.80;;;;;;;22.04;67.58;100974.41;5024300;28;20790;-77
2021/07/17 10:30:07;;;;;;;25.73;9.88;;;;;;;22.18;67.18;100979.91;5031611;28;20399;-77
2021/07/17 10:32:33;;;;;;;24.30;10.65;;;;;;;22.28;65.97;100985.22;5032140;28;20879;-76
2021/07/17 10:34:58;;;;;;;24.58;9.95;;;;;;;22.29;65.70;100983.28;5031397;28;20410;-76
2021/07/17 10:37:30;;;;;;;13.27;10.50;;;;;;;22.19;66.44;100970.50;5019658;28;20407;-77
2021/07/17 10:40:08;;;;;;;13.10;10.40;;;;;;;22.18;66.95;100977.16;5041037;28;20433;-76
2021/07/17 10:42:36;;;;;;;13.77;9.75;;;;;;;22.25;66.70;100980.31;5003036;28;20888;-77
2021/07/17 10:45:03;;;;;;;13.35;9.60;;;;;;;22.36;66.37;100975.38;5018832;28;20405;-76
2021/07/17 10:47:40;;;;;;;12.50;9.65;;;;;;;22.45;66.07;100977.09;5039122;28;20395;-76
2021/07/17 10:50:12;;;;;;;11.55;9.35;;;;;;;22.42;65.42;100972.19;5031859;28;20906;-75
2021/07/17 10:52:40;;;;;;;14.05;9.20;;;;;;;22.48;65.52;100970.94;5010741;28;20479;-77
2021/07/17 10:55:29;;;;;;;15.07;9.38;;;;;;;22.56;65.27;100967.41;5026704;28;20579;-76
2021/07/17 10:58:19;;;;;;;13.02;9.85;;;;;;;22.68;64.64;100964.97;4995314;28;20928;-76
2021/07/17 11:00:48;;;;;;;14.57;9.75;;;;;;;22.82;64.47;100955.81;5031310;28;20423;-75
2021/07/17 11:03:22;;;;;;;14.02;9.77;;;;;;;22.89;63.86;100959.75;5031994;28;20754;-75
2021/07/17 11:05:49;;;;;;;14.25;10.77;;;;;;;23.04;63.26;100953.03;5014155;28;20410;-75
2021/07/17 11:08:35;;;;;;;13.40;9.73;;;;;;;23.18;63.42;100960.06;5031630;28;20407;-76